Time,TemperatureF,DewpointF,PressureIn,WindDirection,WindDirectionDegrees,WindSpeedMPH,WindSpeedGustMPH,Humidity,HourlyPrecipIn,Conditions,Clouds,dailyrainin,SoftwareType,DateUTC
2013-03-13 00:02:00,48.0,43.0,29.98,North,-999,-999.0,-999.0,83,0.00,,,0.02,,2013-03-13 07:02:00,
2013-03-13 00:12:00,48.0,43.0,29.98,North,-999,-999.0,-999.0,83,0.00,,,0.02,,2013-03-13 07:12:00,
2013-03-13 00:22:00,48.0,43.0,29.98,North,-999,-999.0,-999.0,83,0.00,,,0.02,,2013-03-13 07:22:00,
2013-03-13 05:22:00,45.0,40.0,29.99,North,-999,-999.0,-999.0,83,0.00,,,0.01,,2013-03-13 12:22:00,
2013-03-13 05:32:00,45.0,40.0,29.99,North,-999,-999.0,-999.0,83,0.00,,,0.01,,2013-03-13 12:32:00,
2013-03-13 05:42:00,45.0,40.0,29.99,North,-999,-999.0,-999.0,83,0.00,,,0.01,,2013-03-13 12:42:00,
2013-03-13 05:53:00,45.0,40.0,29.99,North,-999,-999.0,-999.0,83,0.00,,,0.01,,2013-03-13 12:53:00,
2013-03-13 06:01:00,45.0,40.0,29.99,North,-999,-999.0,-999.0,83,0.00,,,0.01,,2013-03-13 13:01:00,
2013-03-13 06:11:00,45.0,40.0,29.99,North,-999,-999.0,-999.0,83,0.00,,,0.01,,2013-03-13 13:11:00,
2013-03-13 06:21:00,45.0,40.0,29.99,North,-999,-999.0,-999.0,82,0.00,,,0.01,,2013-03-13 13:21:00,
2013-03-13 06:32:00,45.0,40.0,30.00,North,-999,-999.0,-999.0,82,0.00,,,0.00,,2013-03-13 13:32:00,
2013-03-13 06:42:00,45.0,40.0,30.00,North,-999,-999.0,-999.0,82,0.00,,,0.00,,2013-03-13 13:42:00,
2013-03-13 06:52:00,45.0,40.0,30.00,North,-999,-999.0,-999.0,82,0.00,,,0.00,,2013-03-13 13:52:00,
2013-03-13 07:02:00,45.0,40.0,30.00,North,-999,-999.0,-999.0,82,0.00,,,0.00,,2013-03-13 14:02:00,
2013-03-13 07:11:00,45.0,40.0,30.00,North,-999,-999.0,-999.0,82,0.00,,,0.00,,2013-03-13 14:11:00,
2013-03-13 08:22:00,45.0,40.0,30.00,North,-999,-999.0,-999.0,82,0.00,,,0.00,,2013-03-13 15:22:00,
2013-03-13 08:32:00,45.0,40.0,30.02,North,-999,-999.0,-999.0,83,0.00,,,0.00,,2013-03-13 15:32:00,
2013-03-13 08:42:00,45.0,40.0,30.02,North,-999,-999.0,-999.0,83,0.00,,,0.00,,2013-03-13 15:42:00,
2013-03-13 08:52:00,45.0,40.0,30.02,North,-999,-999.0,-999.0,83,0.00,,,0.00,,2013-03-13 15:52:00,
2013-03-13 09:02:00,45.0,40.0,30.02,North,-999,-999.0,-999.0,83,0.00,,,0.00,,2013-03-13 16:02:00,
2013-03-13 09:11:00,45.0,40.0,30.02,North,-999,-999.0,-999.0,83,0.00,,,0.00,,2013-03-13 16:11:00,
2013-03-13 09:21:00,45.0,40.0,30.02,North,-999,-999.0,-999.0,82,0.00,,,0.00,,2013-03-13 16:21:00,
2013-03-13 09:32:00,46.0,41.0,30.03,North,-999,-999.0,-999.0,82,0.00,,,0.00,,2013-03-13 16:32:00,
2013-03-13 09:42:00,46.0,41.0,30.03,North,-999,-999.0,-999.0,82,0.00,,,0.00,,2013-03-13 16:42:00,
2013-03-13 09:52:00,47.0,41.0,30.03,North,-999,-999.0,-999.0,81,0.00,,,0.00,,2013-03-13 16:52:00,
2013-03-13 10:02:00,48.0,42.0,30.04,North,-999,-999.0,-999.0,80,0.00,,,0.00,,2013-03-13 17:02:00,
2013-03-13 10:11:00,48.0,42.0,30.04,North,-999,-999.0,-999.0,80,0.00,,,0.00,,2013-03-13 17:11:00,
2013-03-13 10:22:00,48.0,42.0,30.04,North,-999,-999.0,-999.0,80,0.00,,,0.00,,2013-03-13 17:22:00,
2013-03-13 10:32:00,48.0,42.0,30.04,North,-999,-999.0,-999.0,80,0.00,,,0.00,,2013-03-13 17:32:00,
2013-03-13 17:22:00,57.0,46.0,30.05,North,-999,-999.0,-999.0,67,0.01,,,0.01,,2013-03-14 00:22:00,
2013-03-13 17:32:00,56.0,46.0,30.02,North,-999,-999.0,-999.0,68,0.01,,,0.01,,2013-03-14 00:32:00,
2013-03-13 17:42:00,56.0,46.0,30.02,North,-999,-999.0,-999.0,68,0.01,,,0.01,,2013-03-14 00:42:00,
2013-03-13 17:52:00,56.0,46.0,30.02,North,-999,-999.0,-999.0,68,0.01,,,0.01,,2013-03-14 00:52:00,
2013-03-13 18:02:00,55.0,45.0,30.02,North,-999,-999.0,-999.0,69,0.00,,,0.01,,2013-03-14 01:02:00,
2013-03-13 18:12:00,55.0,45.0,30.02,North,-999,-999.0,-999.0,69,0.00,,,0.01,,2013-03-14 01:12:00,
2013-03-13 18:31:00,54.0,45.0,30.02,North,-999,-999.0,-999.0,71,0.00,,,0.01,,2013-03-14 01:31:00,
2013-03-13 18:41:00,54.0,45.0,30.02,North,-999,-999.0,-999.0,71,0.00,,,0.01,,2013-03-14 01:41:00,
2013-03-13 18:52:00,54.0,45.0,30.02,North,-999,-999.0,-999.0,72,0.00,,,0.01,,2013-03-14 01:52:00,
2013-03-13 19:01:00,53.0,44.0,30.02,North,-999,-999.0,-999.0,71,0.00,,,0.01,,2013-03-14 02:01:00,
2013-03-13 19:11:00,53.0,44.0,30.02,North,-999,-999.0,-999.0,71,0.00,,,0.01,,2013-03-14 02:11:00,
2013-03-13 19:22:00,53.0,44.0,30.02,North,-999,-999.0,-999.0,72,0.00,,,0.01,,2013-03-14 02:22:00,
2013-03-13 19:31:00,53.0,44.0,30.02,North,-999,-999.0,-999.0,72,0.00,,,0.01,,2013-03-14 02:31:00,
2013-03-13 19:42:00,53.0,44.0,30.02,North,-999,-999.0,-999.0,72,0.00,,,0.01,,2013-03-14 02:42:00,
2013-03-13 19:52:00,53.0,44.0,30.02,North,-999,-999.0,-999.0,72,0.00,,,0.01,,2013-03-14 02:52:00,
2013-03-13 20:23:00,51.0,43.0,30.02,North,-999,-999.0,-999.0,75,0.00,,,0.01,,2013-03-14 03:23:00,
2013-03-13 20:33:00,51.0,43.0,30.01,North,-999,-999.0,-999.0,75,0.00,,,0.01,,2013-03-14 03:33:00,
2013-03-13 20:42:00,51.0,43.0,30.01,North,-999,-999.0,-999.0,75,0.00,,,0.01,,2013-03-14 03:42:00,
2013-03-13 20:52:00,52.0,44.0,30.01,North,-999,-999.0,-999.0,75,0.00,,,0.01,,2013-03-14 03:52:00,
2013-03-13 21:01:00,51.0,43.0,30.01,North,-999,-999.0,-999.0,75,0.00,,,0.01,,2013-03-14 04:01:00,
2013-03-13 21:11:00,51.0,43.0,30.01,North,-999,-999.0,-999.0,75,0.00,,,0.01,,2013-03-14 04:11:00,
2013-03-13 21:22:00,51.0,43.0,30.00,North,-999,-999.0,-999.0,75,0.00,,,0.01,,2013-03-14 04:22:00,
2013-03-13 21:32:00,51.0,43.0,30.00,North,-999,-999.0,-999.0,75,0.00,,,0.01,,2013-03-14 04:32:00,
2013-03-13 21:41:00,51.0,43.0,30.00,North,-999,-999.0,-999.0,75,0.00,,,0.01,,2013-03-14 04:41:00,
2013-03-13 21:52:00,51.0,44.0,30.01,North,-999,-999.0,-999.0,76,0.00,,,0.01,,2013-03-14 04:52:00,
2013-03-13 22:01:00,51.0,44.0,30.01,North,-999,-999.0,-999.0,76,0.00,,,0.01,,2013-03-14 05:01:00,
2013-03-13 22:12:00,51.0,44.0,30.01,North,-999,-999.0,-999.0,76,0.00,,,0.01,,2013-03-14 05:12:00,
2013-03-13 22:22:00,51.0,44.0,30.01,North,-999,-999.0,-999.0,76,0.00,,,0.01,,2013-03-14 05:22:00,
2013-03-13 22:32:00,51.0,43.0,30.01,North,-999,-999.0,-999.0,75,0.00,,,0.01,,2013-03-14 05:32:00,
2013-03-13 22:42:00,51.0,43.0,30.01,North,-999,-999.0,-999.0,75,0.00,,,0.01,,2013-03-14 05:42:00,
2013-03-13 22:52:00,51.0,43.0,30.01,North,-999,-999.0,-999.0,75,0.00,,,0.01,,2013-03-14 05:52:00,
2013-03-13 23:01:00,51.0,43.0,30.01,North,-999,-999.0,-999.0,75,0.00,,,0.01,,2013-03-14 06:01:00,
2013-03-13 23:12:00,51.0,43.0,30.01,North,-999,-999.0,-999.0,75,0.00,,,0.01,,2013-03-14 06:12:00,
2013-03-13 23:21:00,51.0,43.0,30.01,North,-999,-999.0,-999.0,75,0.00,,,0.01,,2013-03-14 06:21:00,